createdAt,value
2023-04-13T00:01:17.668Z,12.43
2023-04-13T00:03:46.200Z,11.97
2023-04-13T00:06:13.849Z,11.70
2023-04-13T00:08:43.733Z,11.63
2023-04-13T00:11:13.090Z,11.17
2023-04-13T00:13:47.861Z,9.80
2023-04-13T00:16:16.902Z,11.57
2023-04-13T00:18:45.277Z,10.27
2023-04-13T00:21:12.788Z,9.83
2023-04-13T00:23:40.874Z,9.57
2023-04-13T00:26:08.395Z,11.57
2023-04-13T00:28:35.892Z,10.10
2023-04-13T00:31:03.490Z,10.23
2023-04-13T00:33:31.217Z,13.57
2023-04-13T00:35:58.721Z,10.07
2023-04-13T00:38:27.479Z,12.90
2023-04-13T00:40:56.254Z,14.00
2023-04-13T00:43:24.070Z,12.37
2023-04-13T00:45:52.304Z,12.03
2023-04-13T00:48:19.932Z,12.80
2023-04-13T00:50:47.567Z,12.43
2023-04-13T00:53:16.228Z,10.27
2023-04-13T00:55:44.145Z,9.60
2023-04-13T00:58:13.658Z,9.97
2023-04-13T01:00:43.481Z,11.50
2023-04-13T01:03:13.152Z,13.17
2023-04-13T01:05:56.801Z,10.70
2023-04-13T01:08:32.218Z,10.77
2023-04-13T01:11:12.991Z,10.53
2023-04-13T01:14:07.988Z,12.23
2023-04-13T01:16:55.494Z,11.80
2023-04-13T01:20:10.655Z,10.73
2023-04-13T01:23:09.737Z,11.90
2023-04-13T01:25:53.324Z,12.10
2023-04-13T01:28:22.660Z,14.47
2023-04-13T01:30:53.993Z,12.37
2023-04-13T01:33:22.597Z,13.23
2023-04-13T01:35:51.448Z,11.10
2023-04-13T01:38:24.815Z,15.97
2023-04-13T01:40:52.782Z,12.30
2023-04-13T01:43:21.782Z,11.07
2023-04-13T01:46:10.248Z,12.60
2023-04-13T01:48:52.508Z,12.03
2023-04-13T01:51:32.404Z,13.90
2023-04-13T01:54:14.080Z,14.40
2023-04-13T01:56:42.292Z,13.67
2023-04-13T01:59:10.832Z,14.27
2023-04-13T02:01:39.488Z,13.80
2023-04-13T02:04:07.945Z,14.17
2023-04-13T02:06:37.410Z,15.27
2023-04-13T02:09:07.039Z,13.93
2023-04-13T02:11:36.885Z,12.97
2023-04-13T02:14:05.043Z,16.20
2023-04-13T02:16:32.632Z,15.60
2023-04-13T02:19:00.391Z,14.00
2023-04-13T02:21:28.435Z,14.40
2023-04-13T02:23:56.003Z,14.90
2023-04-13T02:26:23.788Z,14.43
2023-04-13T02:28:52.626Z,13.63
2023-04-13T02:31:20.796Z,15.03
2023-04-13T02:33:48.443Z,16.23
2023-04-13T02:36:17.650Z,14.97
2023-04-13T02:38:45.751Z,15.97
2023-04-13T02:41:13.304Z,14.77
2023-04-13T02:43:40.897Z,16.17
2023-04-13T02:46:09.015Z,12.93
2023-04-13T02:48:36.849Z,15.80
2023-04-13T02:51:04.633Z,17.47
2023-04-13T02:53:32.122Z,15.10
2023-04-13T02:56:00.074Z,14.37
2023-04-13T02:58:31.671Z,13.83
2023-04-13T03:00:59.441Z,15.10
2023-04-13T03:03:27.112Z,14.07
2023-04-13T03:05:54.640Z,13.73
2023-04-13T03:08:22.191Z,16.07
2023-04-13T03:10:49.817Z,14.17
2023-04-13T03:13:17.437Z,17.13
2023-04-13T03:15:46.775Z,15.70
2023-04-13T03:18:14.457Z,15.50
2023-04-13T03:20:42.010Z,16.63
2023-04-13T03:23:09.992Z,16.60
2023-04-13T03:25:37.666Z,17.40
2023-04-13T03:28:05.670Z,16.50
2023-04-13T03:30:33.139Z,18.67
2023-04-13T03:33:00.766Z,18.30
2023-04-13T03:35:28.521Z,18.17
2023-04-13T03:37:56.236Z,18.60
2023-04-13T03:40:23.796Z,19.70
2023-04-13T03:42:51.444Z,19.27
2023-04-13T03:45:19.090Z,20.77
2023-04-13T03:47:46.943Z,17.93
2023-04-13T03:50:14.875Z,18.03
2023-04-13T03:52:42.366Z,16.53
2023-04-13T03:55:10.285Z,19.50
2023-04-13T03:57:37.843Z,19.23
2023-04-13T04:00:11.302Z,18.67
2023-04-13T04:02:39.155Z,18.30
2023-04-13T04:05:07.256Z,19.37
2023-04-13T04:07:34.786Z,17.90
2023-04-13T04:10:02.330Z,14.77
2023-04-13T04:12:30.307Z,16.30
2023-04-13T04:14:57.843Z,16.10
2023-04-13T04:17:25.629Z,19.37
2023-04-13T04:19:53.327Z,18.17
2023-04-13T04:22:20.830Z,19.40
2023-04-13T04:24:48.299Z,18.00
2023-04-13T04:27:15.829Z,17.47
2023-04-13T04:29:49.356Z,19.50
2023-04-13T04:32:18.755Z,16.53
2023-04-13T04:34:47.209Z,18.77
2023-04-13T04:37:20.548Z,16.43
2023-04-13T04:39:49.049Z,19.50
2023-04-13T04:42:18.976Z,19.67
2023-04-13T04:44:50.042Z,27.10
2023-04-13T04:47:18.851Z,27.60
2023-04-13T04:49:46.405Z,22.80
2023-04-13T04:52:14.912Z,20.77
2023-04-13T04:54:42.459Z,21.80
2023-04-13T04:57:10.782Z,21.50
2023-04-13T04:59:39.014Z,19.73
2023-04-13T05:02:08.331Z,21.10
2023-04-13T05:04:35.916Z,18.77
2023-04-13T05:07:03.500Z,19.33
2023-04-13T05:09:31.257Z,20.37
2023-04-13T05:11:58.866Z,19.27
2023-04-13T05:14:26.531Z,19.70
2023-04-13T05:16:54.078Z,19.90
2023-04-13T05:19:21.548Z,20.87
2023-04-13T05:21:49.172Z,20.13
2023-04-13T05:24:16.683Z,19.17
2023-04-13T05:26:44.157Z,35.80
2023-04-13T05:29:12.159Z,30.07
2023-04-13T05:31:39.782Z,25.27
2023-04-13T05:34:07.297Z,27.10
2023-04-13T05:36:34.795Z,24.60
2023-04-13T05:39:02.936Z,27.23
2023-04-13T05:41:30.583Z,37.63
2023-04-13T05:43:58.058Z,29.50
2023-04-13T05:46:26.304Z,29.43
2023-04-13T05:48:53.839Z,23.03
2023-04-13T05:51:21.751Z,22.00
2023-04-13T05:53:49.186Z,20.53
2023-04-13T05:56:16.874Z,19.83
2023-04-13T05:58:44.603Z,18.53
2023-04-13T06:01:12.441Z,19.57
2023-04-13T06:03:40.220Z,17.90
2023-04-13T06:06:08.897Z,22.30
2023-04-13T06:08:36.475Z,20.10
2023-04-13T06:11:04.058Z,20.57
2023-04-13T06:13:31.976Z,20.43
2023-04-13T06:15:59.965Z,23.23
2023-04-13T06:18:28.080Z,19.57
2023-04-13T06:20:57.325Z,20.60
2023-04-13T06:23:24.905Z,20.87
2023-04-13T06:25:52.527Z,28.03
2023-04-13T06:28:20.021Z,26.40
2023-04-13T06:30:47.646Z,21.47
2023-04-13T06:33:15.713Z,25.13
2023-04-13T06:35:43.255Z,25.80
2023-04-13T06:38:11.977Z,19.97
2023-04-13T06:40:39.833Z,20.57
2023-04-13T06:43:13.508Z,20.87
2023-04-13T06:45:48.562Z,17.47
2023-04-13T06:48:16.225Z,20.13
2023-04-13T06:50:44.863Z,21.13
2023-04-13T06:53:12.386Z,19.47
2023-04-13T06:55:39.877Z,20.20
2023-04-13T06:58:07.502Z,20.80
2023-04-13T07:00:35.038Z,24.30
2023-04-13T07:03:02.627Z,21.53
2023-04-13T07:05:30.758Z,20.77
2023-04-13T07:07:58.480Z,18.07
2023-04-13T07:10:26.025Z,20.83
2023-04-13T07:12:53.604Z,17.53
2023-04-13T07:15:21.392Z,17.03
2023-04-13T07:17:49.519Z,17.23
2023-04-13T07:20:17.835Z,18.87
2023-04-13T07:22:45.333Z,17.13
2023-04-13T07:25:12.833Z,19.83
2023-04-13T07:27:40.720Z,17.67
2023-04-13T07:30:09.163Z,17.43
2023-04-13T07:32:36.853Z,17.30
2023-04-13T07:35:05.051Z,18.60
2023-04-13T07:37:32.623Z,17.43
2023-04-13T07:40:00.707Z,19.10
2023-04-13T07:42:35.731Z,18.00
2023-04-13T07:45:07.647Z,18.47
2023-04-13T07:47:35.394Z,18.70
2023-04-13T07:50:06.022Z,18.57
2023-04-13T07:52:34.083Z,18.27
2023-04-13T07:55:06.900Z,18.83
2023-04-13T07:57:35.168Z,17.20
2023-04-13T08:00:06.755Z,19.57
2023-04-13T08:02:34.511Z,15.97
2023-04-13T08:05:02.499Z,16.13
2023-04-13T08:07:30.167Z,18.23
2023-04-13T08:09:57.681Z,16.13
2023-04-13T08:12:25.169Z,16.30
2023-04-13T08:14:53.267Z,16.53
2023-04-13T08:17:21.977Z,14.07
2023-04-13T08:19:49.568Z,14.87
2023-04-13T08:22:17.066Z,15.80
2023-04-13T08:24:46.024Z,16.50
2023-04-13T08:27:13.582Z,17.30
2023-04-13T08:29:41.240Z,17.23
2023-04-13T08:32:08.838Z,16.80
2023-04-13T08:34:36.972Z,17.53
2023-04-13T08:37:04.933Z,18.17
2023-04-13T08:39:32.545Z,17.03
2023-04-13T08:42:02.060Z,14.70
2023-04-13T08:44:31.626Z,15.77
2023-04-13T08:47:00.865Z,16.93
2023-04-13T08:49:29.486Z,17.00
2023-04-13T08:52:00.485Z,13.00
2023-04-13T08:54:29.188Z,15.40
2023-04-13T08:56:57.973Z,14.83
2023-04-13T08:59:29.313Z,14.67
2023-04-13T09:01:58.541Z,15.77
2023-04-13T09:04:32.802Z,13.07
2023-04-13T09:07:01.699Z,12.23
2023-04-13T09:09:29.958Z,11.57
2023-04-13T09:11:57.672Z,16.07
2023-04-13T09:14:26.005Z,13.50
2023-04-13T09:16:53.868Z,12.40
2023-04-13T09:19:32.899Z,10.83
2023-04-13T09:22:01.214Z,9.60
2023-04-13T09:24:41.137Z,11.03
2023-04-13T09:27:20.462Z,8.23
2023-04-13T09:29:55.720Z,8.77
2023-04-13T09:32:28.449Z,8.07
2023-04-13T09:35:01.206Z,7.87
2023-04-13T09:37:28.706Z,8.37
2023-04-13T09:39:56.283Z,8.50
2023-04-13T09:42:24.177Z,8.40
2023-04-13T09:44:58.428Z,8.37
2023-04-13T09:47:35.406Z,8.97
2023-04-13T09:50:04.782Z,7.87
2023-04-13T09:52:32.922Z,7.77
2023-04-13T09:55:00.601Z,7.40
2023-04-13T09:57:30.156Z,11.30
2023-04-13T10:00:01.990Z,9.50
2023-04-13T10:02:30.333Z,8.90
2023-04-13T10:04:58.477Z,8.17
2023-04-13T10:07:30.238Z,9.73
2023-04-13T10:09:57.720Z,8.23
2023-04-13T10:12:27.284Z,7.60
2023-04-13T10:15:27.334Z,9.17
2023-04-13T10:18:10.232Z,6.93
2023-04-13T10:20:38.091Z,9.27
2023-04-13T10:23:06.914Z,8.23
2023-04-13T10:25:36.808Z,7.83
2023-04-13T10:28:06.113Z,8.00
2023-04-13T10:30:33.786Z,7.90
2023-04-13T10:33:09.950Z,6.57
2023-04-13T10:35:39.467Z,6.80
2023-04-13T10:38:11.932Z,6.27
2023-04-13T10:40:45.129Z,6.03
2023-04-13T10:43:12.900Z,7.53
2023-04-13T10:45:40.498Z,7.57
2023-04-13T10:48:08.068Z,9.23
2023-04-13T10:50:35.968Z,8.07
2023-04-13T10:53:06.939Z,9.10
2023-04-13T10:55:36.125Z,11.53
2023-04-13T10:58:14.954Z,9.17
2023-04-13T11:00:47.208Z,10.80
2023-04-13T11:03:16.975Z,9.70
2023-04-13T11:05:47.694Z,9.57
2023-04-13T11:08:21.192Z,11.17
2023-04-13T11:10:54.273Z,10.87
2023-04-13T11:13:25.353Z,10.57
2023-04-13T11:16:04.369Z,11.13
2023-04-13T11:18:32.743Z,10.10
2023-04-13T11:21:01.210Z,10.27
2023-04-13T11:23:28.742Z,6.57
2023-04-13T11:26:00.072Z,5.53
2023-04-13T11:28:44.081Z,5.23
2023-04-13T11:31:12.141Z,4.87
2023-04-13T11:33:40.805Z,5.30
2023-04-13T11:36:12.146Z,2.67
2023-04-13T11:38:41.826Z,2.93
2023-04-13T11:41:15.811Z,2.30
2023-04-13T11:43:48.985Z,2.57
2023-04-13T11:46:25.776Z,2.80
2023-04-13T11:48:55.373Z,2.80
2023-04-13T11:51:23.252Z,4.50
2023-04-13T11:53:53.401Z,3.17
2023-04-13T11:56:21.453Z,2.60
2023-04-13T11:58:53.339Z,4.17
2023-04-13T12:01:26.976Z,6.40
2023-04-13T12:06:44.503Z,2.27
2023-04-13T12:09:16.696Z,3.87
2023-04-13T12:11:50.369Z,3.23
2023-04-13T12:19:27.232Z,2.17
2023-04-13T12:21:57.456Z,3.03
2023-04-13T12:24:39.694Z,2.23
2023-04-13T12:29:39.584Z,3.60
2023-04-13T12:32:15.302Z,2.60
2023-04-13T12:34:44.134Z,2.70
2023-04-13T12:37:12.417Z,2.93
2023-04-13T12:39:39.969Z,3.50
2023-04-13T12:42:07.478Z,3.20
2023-04-13T12:44:34.960Z,2.67
2023-04-13T12:47:02.881Z,2.20
2023-04-13T12:49:30.532Z,3.77
2023-04-13T12:51:58.171Z,2.63
2023-04-13T12:54:25.954Z,2.73
2023-04-13T12:56:53.506Z,2.40
2023-04-13T12:59:23.392Z,3.07
2023-04-13T13:01:51.392Z,2.03
2023-04-13T13:04:18.920Z,1.50
2023-04-13T13:06:46.635Z,3.73
2023-04-13T13:09:14.120Z,1.50
2023-04-13T13:11:41.620Z,1.80
2023-04-13T13:14:11.166Z,2.33
2023-04-13T13:16:39.148Z,1.93
2023-04-13T13:19:06.863Z,1.77
2023-04-13T13:21:34.632Z,1.37
2023-04-13T13:24:02.206Z,1.53
2023-04-13T13:26:36.690Z,1.20
2023-04-13T13:29:18.206Z,2.20
2023-04-13T13:31:46.081Z,2.10
2023-04-13T13:34:13.643Z,2.30
2023-04-13T13:36:41.230Z,1.60
2023-04-13T13:39:08.820Z,2.33
2023-04-13T13:41:36.393Z,5.57
2023-04-13T13:44:03.859Z,4.40
2023-04-13T13:46:31.325Z,3.83
2023-04-13T13:48:59.088Z,1.50
2023-04-13T13:51:28.447Z,2.80
2023-04-13T13:53:56.008Z,1.10
2023-04-13T13:56:23.571Z,3.57
2023-04-13T13:58:51.105Z,3.00
2023-04-13T14:01:18.827Z,1.60
2023-04-13T14:03:46.700Z,0.97
2023-04-13T14:06:14.247Z,1.53
2023-04-13T14:08:41.775Z,1.47
2023-04-13T14:11:11.632Z,1.80
2023-04-13T14:13:39.315Z,1.73
2023-04-13T14:16:07.550Z,1.43
2023-04-13T14:18:35.118Z,3.00
2023-04-13T14:21:02.884Z,1.70
2023-04-13T14:23:31.120Z,2.33
2023-04-13T14:25:58.641Z,2.27
2023-04-13T14:28:26.269Z,1.53
2023-04-13T14:30:53.740Z,1.57
2023-04-13T14:33:21.223Z,1.40
2023-04-13T14:35:48.837Z,2.93
2023-04-13T14:38:16.987Z,2.23
2023-04-13T14:40:44.529Z,1.67
2023-04-13T14:43:11.994Z,2.67
2023-04-13T14:45:39.452Z,3.17
2023-04-13T14:48:07.143Z,3.07
2023-04-13T14:50:38.313Z,1.87
2023-04-13T14:53:07.933Z,2.43
2023-04-13T14:55:35.544Z,3.77
2023-04-13T14:58:03.538Z,3.97
2023-04-13T15:00:40.408Z,4.30
2023-04-13T15:03:15.092Z,6.30
2023-04-13T15:05:46.457Z,4.40
2023-04-13T15:08:16.906Z,3.20
2023-04-13T15:10:44.559Z,2.80
2023-04-13T15:13:12.287Z,2.60
2023-04-13T15:15:41.192Z,2.50
2023-04-13T15:18:09.329Z,3.47
2023-04-13T15:20:36.869Z,2.90
2023-04-13T15:23:04.547Z,1.20
2023-04-13T15:25:32.075Z,2.53
2023-04-13T15:27:59.796Z,1.97
2023-04-13T15:30:30.172Z,1.97
2023-04-13T15:33:02.529Z,1.60
2023-04-13T15:35:31.730Z,1.77
2023-04-13T15:38:05.560Z,2.33
2023-04-13T15:40:34.835Z,2.37
2023-04-13T15:43:03.649Z,2.13
2023-04-13T15:45:32.138Z,2.20
2023-04-13T15:47:59.749Z,2.40
2023-04-13T15:50:27.632Z,2.07
2023-04-13T15:52:55.107Z,3.30
2023-04-13T15:55:22.744Z,3.20
2023-04-13T15:57:50.911Z,3.83
2023-04-13T16:00:18.882Z,4.17
2023-04-13T16:02:46.660Z,3.37
2023-04-13T16:05:14.347Z,3.77
2023-04-13T16:07:41.880Z,2.47
2023-04-13T16:10:16.717Z,3.17
2023-04-13T16:12:45.540Z,4.00
2023-04-13T16:15:13.392Z,5.30
2023-04-13T16:17:44.099Z,3.73
2023-04-13T16:20:14.854Z,4.93
2023-04-13T16:22:47.146Z,3.40
2023-04-13T16:25:15.759Z,3.13
2023-04-13T16:27:43.869Z,3.70
2023-04-13T16:30:17.626Z,4.60
2023-04-13T16:32:46.649Z,4.57
2023-04-13T16:35:14.591Z,4.27
2023-04-13T16:37:43.256Z,4.60
2023-04-13T16:40:11.819Z,4.47
2023-04-13T16:42:40.761Z,9.23
2023-04-13T16:45:12.971Z,7.03
2023-04-13T16:47:42.265Z,5.03
2023-04-13T16:50:11.421Z,4.63
2023-04-13T16:52:40.149Z,5.83
2023-04-13T16:55:11.232Z,5.10
2023-04-13T16:57:38.819Z,5.50
2023-04-13T17:00:09.592Z,4.17
2023-04-13T17:02:42.157Z,6.23
2023-04-13T17:05:11.787Z,4.53
2023-04-13T17:07:43.827Z,4.70
2023-04-13T17:10:14.485Z,5.97
2023-04-13T17:12:42.127Z,5.97
2023-04-13T17:15:10.620Z,5.93
2023-04-13T17:17:38.680Z,6.10
2023-04-13T17:20:07.447Z,5.13
2023-04-13T17:22:35.292Z,6.20
2023-04-13T17:25:02.871Z,10.10
2023-04-13T17:27:30.923Z,7.10
2023-04-13T17:29:58.499Z,7.63
2023-04-13T17:32:26.284Z,7.73
2023-04-13T17:34:53.759Z,7.90
2023-04-13T17:37:21.295Z,6.57
2023-04-13T17:39:50.875Z,6.03
2023-04-13T17:42:19.041Z,6.37
2023-04-13T17:44:46.604Z,3.87
2023-04-13T17:47:14.486Z,5.83
2023-04-13T17:49:42.098Z,4.60
2023-04-13T17:52:09.713Z,4.43
2023-04-13T17:54:37.951Z,5.20
2023-04-13T17:57:07.497Z,4.27
2023-04-13T17:59:35.035Z,5.30
2023-04-13T18:02:02.953Z,4.70
2023-04-13T18:04:32.739Z,3.40
2023-04-13T18:07:00.554Z,4.17
2023-04-13T18:09:28.391Z,4.20
2023-04-13T18:11:55.944Z,4.50
2023-04-13T18:14:23.397Z,4.47
2023-04-13T18:16:51.204Z,7.93
2023-04-13T18:19:18.688Z,7.47
2023-04-13T18:21:46.277Z,3.83
2023-04-13T18:24:13.744Z,3.30
2023-04-13T18:26:41.405Z,4.30
2023-04-13T18:29:09.749Z,5.83
2023-04-13T18:31:37.317Z,5.67
2023-04-13T18:34:07.368Z,4.10
2023-04-13T18:36:35.004Z,3.73
2023-04-13T18:39:03.809Z,4.47
2023-04-13T18:41:31.953Z,3.80
2023-04-13T18:44:00.243Z,4.07
2023-04-13T18:46:28.084Z,5.33
2023-04-13T18:48:55.636Z,4.50
2023-04-13T18:51:23.161Z,3.90
2023-04-13T18:53:50.712Z,4.23
2023-04-13T18:56:18.188Z,3.43
2023-04-13T18:58:45.628Z,3.80
2023-04-13T19:01:17.756Z,3.13
2023-04-13T19:03:46.318Z,4.37
2023-04-13T19:06:14.095Z,3.50
2023-04-13T19:08:43.434Z,3.40
2023-04-13T19:11:11.000Z,5.27
2023-04-13T19:13:38.506Z,4.03
2023-04-13T19:16:07.037Z,4.83
2023-04-13T19:18:35.280Z,4.03
2023-04-13T19:21:03.040Z,6.30
2023-04-13T19:23:30.560Z,3.93
2023-04-13T19:25:58.010Z,3.50
2023-04-13T19:28:27.228Z,3.50
2023-04-13T19:30:55.332Z,5.57
2023-04-13T19:33:22.787Z,4.90
2023-04-13T19:35:50.539Z,3.93
2023-04-13T19:38:18.184Z,5.20
2023-04-13T19:40:45.673Z,4.17
2023-04-13T19:43:13.212Z,3.47
2023-04-13T19:45:40.915Z,3.20
2023-04-13T19:48:08.530Z,3.30
2023-04-13T19:50:36.491Z,3.63
2023-04-13T19:53:04.143Z,5.40
2023-04-13T19:55:32.016Z,4.27
2023-04-13T19:57:59.552Z,5.67
2023-04-13T20:00:28.237Z,3.60
2023-04-13T20:03:03.310Z,3.43
2023-04-13T20:05:31.266Z,3.40
2023-04-13T20:07:59.399Z,4.60
2023-04-13T20:10:28.145Z,4.40
2023-04-13T20:12:55.613Z,4.57
2023-04-13T20:15:23.084Z,2.93
2023-04-13T20:17:51.554Z,3.33
2023-04-13T20:20:21.858Z,3.63
2023-04-13T20:22:51.320Z,5.17
2023-04-13T20:25:18.749Z,5.43
2023-04-13T20:27:46.242Z,3.73
2023-04-13T20:30:14.125Z,3.37
2023-04-13T20:32:41.782Z,4.33
2023-04-13T20:35:13.595Z,3.77
2023-04-13T20:37:41.763Z,2.90
2023-04-13T20:40:12.479Z,4.13
2023-04-13T20:42:42.136Z,2.80
2023-04-13T20:45:14.953Z,3.93
2023-04-13T20:47:59.610Z,2.90
2023-04-13T20:50:27.674Z,3.03
2023-04-13T20:52:57.023Z,3.43
2023-04-13T20:55:24.776Z,2.93
2023-04-13T20:57:52.568Z,4.50
2023-04-13T21:00:23.737Z,3.73
2023-04-13T21:02:53.388Z,5.73
2023-04-13T21:05:23.973Z,3.10
2023-04-13T21:07:51.998Z,5.03
2023-04-13T21:10:19.512Z,4.27
2023-04-13T21:12:47.256Z,4.27
2023-04-13T21:15:15.315Z,4.23
2023-04-13T21:17:42.854Z,3.40
2023-04-13T21:20:11.818Z,4.33
2023-04-13T21:22:39.410Z,3.67
2023-04-13T21:25:07.376Z,3.47
2023-04-13T21:27:36.363Z,3.37
2023-04-13T21:30:04.210Z,2.20
2023-04-13T21:32:31.792Z,2.93
2023-04-13T21:35:00.671Z,2.77
2023-04-13T21:37:31.285Z,2.63
2023-04-13T21:40:00.943Z,2.27
2023-04-13T21:42:28.553Z,2.50
2023-04-13T21:44:57.393Z,2.63
2023-04-13T21:47:25.231Z,1.57
2023-04-13T21:49:52.911Z,2.83
2023-04-13T21:52:20.432Z,2.67
2023-04-13T21:54:50.245Z,3.07
2023-04-13T21:57:18.949Z,3.27
2023-04-13T21:59:46.499Z,3.97
2023-04-13T22:02:14.054Z,3.43
2023-04-13T22:04:41.686Z,2.80
2023-04-13T22:07:09.151Z,3.53
2023-04-13T22:09:36.655Z,4.83
2023-04-13T22:12:04.435Z,5.23
2023-04-13T22:14:31.999Z,4.33
2023-04-13T22:16:59.707Z,4.93
2023-04-13T22:19:27.249Z,3.83
2023-04-13T22:21:54.776Z,4.13
2023-04-13T22:24:22.370Z,4.80
2023-04-13T22:26:49.850Z,4.20
2023-04-13T22:29:17.404Z,4.00
2023-04-13T22:31:44.954Z,4.77
2023-04-13T22:34:12.613Z,4.73
2023-04-13T22:36:40.263Z,5.77
2023-04-13T22:39:07.731Z,5.27
2023-04-13T22:41:35.190Z,5.57
2023-04-13T22:44:03.263Z,5.00
2023-04-13T22:46:31.061Z,6.00
2023-04-13T22:48:58.884Z,8.00
2023-04-13T22:51:28.202Z,4.53
2023-04-13T22:53:56.479Z,5.63
2023-04-13T22:56:23.944Z,5.63
2023-04-13T22:58:51.929Z,5.37
2023-04-13T23:01:19.592Z,4.37
2023-04-13T23:03:47.385Z,4.17
2023-04-13T23:06:15.084Z,5.20
2023-04-13T23:08:42.544Z,4.43
2023-04-13T23:11:10.977Z,4.83
2023-04-13T23:13:38.493Z,5.87
2023-04-13T23:16:06.992Z,4.50
2023-04-13T23:18:34.541Z,4.20
2023-04-13T23:21:11.005Z,4.50
2023-04-13T23:23:39.490Z,4.80
2023-04-13T23:26:07.221Z,5.53
2023-04-13T23:28:34.857Z,4.67
2023-04-13T23:31:09.038Z,6.37
2023-04-13T23:33:36.768Z,5.80
2023-04-13T23:36:04.928Z,5.37
2023-04-13T23:38:33.097Z,6.27
2023-04-13T23:41:00.947Z,6.30
2023-04-13T23:43:28.581Z,5.17
2023-04-13T23:45:57.075Z,4.87
2023-04-13T23:48:26.372Z,5.13
2023-04-13T23:50:54.410Z,4.80
2023-04-13T23:53:21.868Z,4.93
2023-04-13T23:55:49.462Z,5.80
2023-04-13T23:58:17.035Z,4.70
